createdAt,value
2022-12-09T00:04:28.850Z,13.63
2022-12-09T00:09:31.426Z,13.27
2022-12-09T00:14:33.368Z,12.83
2022-12-09T00:19:35.292Z,11.83
2022-12-09T00:24:37.374Z,11.73
2022-12-09T00:29:39.239Z,11.13
2022-12-09T00:34:42.351Z,10.43
2022-12-09T00:39:44.501Z,10.57
2022-12-09T00:44:46.516Z,10.43
2022-12-09T00:49:48.684Z,11.27
2022-12-09T00:54:50.892Z,11.37
2022-12-09T00:59:52.922Z,11.53
2022-12-09T01:04:54.970Z,12.07
2022-12-09T01:09:57.247Z,11.77
2022-12-09T01:14:59.381Z,12.33
2022-12-09T01:20:01.669Z,11.07
2022-12-09T01:25:04.107Z,14.00
2022-12-09T01:30:09.430Z,11.57
2022-12-09T01:35:11.721Z,11.97
2022-12-09T01:40:16.957Z,12.20
2022-12-09T01:45:22.417Z,12.03
2022-12-09T01:50:29.392Z,10.80
2022-12-09T01:55:32.302Z,12.07
2022-12-09T02:00:34.178Z,11.73
2022-12-09T02:05:37.885Z,12.37
2022-12-09T02:11:04.330Z,12.53
2022-12-09T02:16:11.139Z,11.17
2022-12-09T02:21:23.647Z,12.07
2022-12-09T02:26:43.294Z,11.87
2022-12-09T02:32:01.234Z,12.37
2022-12-09T02:37:19.700Z,12.77
2022-12-09T02:42:32.351Z,12.07
2022-12-09T02:47:41.551Z,12.50
2022-12-09T02:52:49.119Z,12.40
2022-12-09T02:57:56.416Z,13.43
2022-12-09T03:03:03.080Z,12.43
2022-12-09T03:08:14.283Z,11.70
2022-12-09T03:13:26.821Z,11.67
2022-12-09T03:18:30.682Z,12.70
2022-12-09T03:23:35.047Z,12.90
2022-12-09T03:28:43.087Z,12.80
2022-12-09T03:33:49.197Z,13.70
2022-12-09T03:38:52.891Z,11.30
2022-12-09T03:44:12.678Z,12.07
2022-12-09T03:49:14.817Z,12.10
2022-12-09T03:54:47.194Z,11.80
2022-12-09T04:00:01.518Z,13.13
2022-12-09T04:05:04.248Z,12.23
2022-12-09T04:10:08.130Z,12.63
2022-12-09T04:15:10.535Z,13.17
2022-12-09T04:20:13.270Z,13.13
2022-12-09T04:25:17.562Z,13.57
2022-12-09T04:30:19.877Z,12.17
2022-12-09T04:35:23.107Z,13.27
2022-12-09T04:40:25.248Z,12.43
2022-12-09T04:45:27.449Z,13.63
2022-12-09T04:50:29.581Z,13.07
2022-12-09T04:55:31.535Z,13.97
2022-12-09T05:00:33.870Z,12.10
2022-12-09T05:05:40.089Z,13.30
2022-12-09T05:10:46.899Z,13.27
2022-12-09T05:15:49.203Z,13.20
2022-12-09T05:20:51.313Z,13.87
2022-12-09T05:25:55.568Z,13.50
2022-12-09T05:31:02.354Z,15.03
2022-12-09T05:36:05.074Z,15.10
2022-12-09T05:41:07.449Z,16.20
2022-12-09T05:46:10.338Z,13.30
2022-12-09T05:51:16.679Z,12.80
2022-12-09T05:56:19.930Z,15.33
2022-12-09T06:01:22.907Z,15.80
2022-12-09T06:06:27.687Z,14.53
2022-12-09T06:11:32.350Z,14.17
2022-12-09T06:16:34.912Z,14.40
2022-12-09T06:21:40.435Z,15.03
2022-12-09T06:26:43.603Z,14.50
2022-12-09T06:31:46.232Z,15.37
2022-12-09T06:36:48.623Z,15.77
2022-12-09T06:41:50.885Z,16.27
2022-12-09T06:46:53.019Z,16.00
2022-12-09T06:51:55.208Z,17.27
2022-12-09T06:56:57.335Z,17.03
2022-12-09T07:01:59.956Z,15.90
2022-12-09T07:07:02.396Z,16.50
2022-12-09T07:12:04.874Z,16.63
2022-12-09T07:17:07.712Z,16.67
2022-12-09T07:22:10.276Z,16.33
2022-12-09T07:27:19.392Z,16.47
2022-12-09T07:32:22.147Z,16.20
2022-12-09T07:37:23.980Z,15.47
2022-12-09T07:42:25.847Z,14.77
2022-12-09T07:47:30.995Z,14.97
2022-12-09T07:52:33.133Z,15.67
2022-12-09T07:57:35.358Z,15.73
2022-12-09T08:02:37.309Z,17.30
2022-12-09T08:07:44.145Z,16.60
2022-12-09T08:12:46.898Z,14.50
2022-12-09T08:17:48.903Z,16.23
2022-12-09T08:22:51.760Z,14.67
2022-12-09T08:27:54.267Z,13.97
2022-12-09T08:32:56.383Z,14.40
2022-12-09T08:37:58.895Z,13.27
2022-12-09T08:43:03.100Z,13.33
2022-12-09T08:48:06.199Z,12.87
2022-12-09T08:53:08.102Z,11.07
2022-12-09T08:58:10.471Z,9.97
2022-12-09T09:03:12.467Z,11.17
2022-12-09T09:08:15.114Z,11.47
2022-12-09T09:13:17.115Z,12.57
2022-12-09T09:18:19.801Z,11.47
2022-12-09T09:23:22.193Z,11.40
2022-12-09T09:28:30.459Z,10.33
2022-12-09T09:33:33.459Z,11.47
2022-12-09T09:38:36.050Z,11.97
2022-12-09T09:43:39.010Z,11.97
2022-12-09T09:48:41.647Z,13.23
2022-12-09T09:53:44.403Z,13.03
2022-12-09T09:59:17.748Z,12.03
2022-12-09T10:04:39.441Z,13.40
2022-12-09T10:10:14.810Z,12.30
2022-12-09T10:15:22.422Z,13.13
2022-12-09T10:20:30.631Z,12.90
2022-12-09T10:25:37.526Z,13.33
2022-12-09T10:30:44.352Z,12.57
2022-12-09T10:35:47.817Z,10.33
2022-12-09T10:41:02.811Z,12.87
2022-12-09T10:46:17.937Z,12.20
2022-12-09T10:51:39.045Z,11.37
2022-12-09T10:57:03.579Z,9.57
2022-12-09T11:02:08.958Z,9.57
2022-12-09T11:07:21.055Z,8.27
2022-12-09T11:12:36.720Z,8.17
2022-12-09T11:18:05.210Z,7.53
2022-12-09T11:23:13.561Z,9.30
2022-12-09T11:28:16.549Z,9.33
2022-12-09T11:33:22.870Z,8.83
2022-12-09T11:38:34.993Z,9.97
2022-12-09T11:43:45.988Z,12.43
2022-12-09T11:48:59.014Z,10.90
2022-12-09T11:54:10.842Z,11.17
2022-12-09T11:59:23.384Z,11.63
2022-12-09T12:04:32.583Z,12.17
2022-12-09T12:09:42.112Z,10.13
2022-12-09T12:14:45.259Z,10.67
2022-12-09T12:19:52.334Z,9.90
2022-12-09T12:25:11.190Z,10.90
2022-12-09T12:30:23.825Z,11.13
2022-12-09T12:35:40.620Z,9.70
2022-12-09T12:41:07.031Z,12.37
2022-12-09T12:46:27.416Z,11.03
2022-12-09T12:51:52.534Z,10.57
2022-12-09T12:57:26.999Z,11.27
2022-12-09T13:02:51.631Z,11.17
2022-12-09T13:08:14.518Z,12.07
2022-12-09T13:13:28.437Z,10.30
2022-12-09T13:18:38.802Z,11.07
2022-12-09T13:24:17.927Z,11.77
2022-12-09T13:29:30.181Z,11.33
2022-12-09T13:35:06.736Z,10.47
2022-12-09T13:40:21.242Z,11.63
2022-12-09T13:45:28.326Z,12.43
2022-12-09T13:50:51.313Z,11.73
2022-12-09T13:55:56.114Z,13.10
2022-12-09T14:01:36.340Z,13.27
2022-12-09T14:06:44.227Z,11.87
2022-12-09T14:11:52.337Z,9.33
2022-12-09T14:16:57.143Z,10.10
2022-12-09T14:22:21.041Z,11.70
2022-12-09T14:27:30.158Z,10.47
2022-12-09T14:32:36.769Z,10.43
2022-12-09T14:38:06.590Z,11.87
2022-12-09T14:43:32.944Z,12.40
2022-12-09T14:48:38.224Z,10.87
2022-12-09T14:53:40.238Z,11.83
2022-12-09T14:58:48.110Z,11.53
2022-12-09T15:03:55.362Z,12.47
2022-12-09T15:08:59.354Z,11.50
2022-12-09T15:14:27.207Z,10.97
2022-12-09T15:19:59.076Z,12.23
2022-12-09T15:24:53.174Z,12.57
2022-12-09T15:29:55.724Z,12.57
2022-12-09T15:35:16.943Z,13.00
2022-12-09T15:40:22.181Z,14.33
2022-12-09T15:45:27.669Z,12.90
2022-12-09T15:50:58.758Z,14.10
2022-12-09T15:56:13.261Z,13.97
2022-12-09T16:01:25.457Z,14.53
2022-12-09T16:06:37.834Z,15.30
2022-12-09T16:11:48.506Z,14.50
2022-12-09T16:16:55.347Z,13.60
2022-12-09T16:22:00.832Z,14.37
2022-12-09T16:27:05.970Z,13.10
2022-12-09T16:32:26.540Z,14.43
2022-12-09T16:37:42.691Z,14.30
2022-12-09T16:42:45.091Z,16.57
2022-12-09T16:47:47.339Z,16.10
2022-12-09T16:52:49.430Z,14.10
2022-12-09T16:57:52.063Z,13.60
2022-12-09T17:03:01.742Z,16.37
2022-12-09T17:08:04.122Z,13.00
2022-12-09T17:13:07.085Z,17.43
2022-12-09T17:18:10.001Z,16.33
2022-12-09T17:23:12.040Z,16.60
2022-12-09T17:28:13.872Z,16.77
2022-12-09T17:33:15.860Z,17.03
2022-12-09T17:38:17.832Z,16.53
2022-12-09T17:43:19.761Z,16.27
2022-12-09T17:48:21.691Z,14.50
2022-12-09T17:53:23.754Z,16.47
2022-12-09T17:58:25.819Z,14.87
2022-12-09T18:03:54.525Z,15.57
2022-12-09T18:08:50.827Z,15.80
2022-12-09T18:13:53.470Z,17.00
2022-12-09T18:18:55.324Z,13.30
2022-12-09T18:23:57.344Z,15.93
2022-12-09T18:29:00.022Z,15.73
2022-12-09T18:34:01.975Z,13.60
2022-12-09T18:39:05.020Z,14.17
2022-12-09T18:44:07.918Z,14.80
2022-12-09T18:49:14.362Z,16.83
2022-12-09T18:54:19.532Z,14.30
2022-12-09T18:59:23.340Z,12.77
2022-12-09T19:04:28.003Z,14.20
2022-12-09T19:09:34.623Z,14.87
2022-12-09T19:14:38.602Z,13.07
2022-12-09T19:19:40.511Z,12.73
2022-12-09T19:24:43.505Z,14.93
2022-12-09T19:29:45.607Z,13.03
2022-12-09T19:34:47.744Z,14.37
2022-12-09T19:39:50.295Z,13.03
2022-12-09T19:45:01.260Z,15.03
2022-12-09T19:50:04.599Z,14.70
2022-12-09T19:55:08.373Z,13.80
2022-12-09T20:00:11.342Z,14.73
2022-12-09T20:05:14.265Z,16.53
2022-12-09T20:10:16.096Z,13.00
2022-12-09T20:15:18.138Z,12.80
2022-12-09T20:20:20.018Z,13.63
2022-12-09T20:25:22.050Z,13.47
2022-12-09T20:30:24.091Z,15.13
2022-12-09T20:35:26.267Z,12.93
2022-12-09T20:40:28.353Z,12.57
2022-12-09T20:45:30.613Z,13.70
2022-12-09T20:50:38.344Z,11.17
2022-12-09T20:55:40.750Z,12.10
2022-12-09T21:00:42.763Z,11.30
2022-12-09T21:05:44.738Z,11.13
2022-12-09T21:10:46.702Z,9.57
2022-12-09T21:15:48.796Z,9.60
2022-12-09T21:20:50.838Z,10.30
2022-12-09T21:25:52.780Z,9.27
2022-12-09T21:30:54.687Z,8.93
2022-12-09T21:35:56.648Z,8.50
2022-12-09T21:41:05.606Z,9.90
2022-12-09T21:46:10.434Z,9.53
2022-12-09T21:51:13.391Z,11.13
2022-12-09T21:56:17.775Z,11.30
2022-12-09T22:01:26.193Z,13.07
2022-12-09T22:06:29.311Z,14.80
2022-12-09T22:11:34.944Z,12.93
2022-12-09T22:16:43.118Z,11.63
2022-12-09T22:21:45.466Z,12.97
2022-12-09T22:26:47.521Z,13.83
2022-12-09T22:31:49.355Z,13.63
2022-12-09T22:36:54.040Z,13.77
2022-12-09T22:41:55.831Z,13.33
2022-12-09T22:46:57.722Z,13.57
2022-12-09T22:52:00.824Z,13.40
2022-12-09T22:57:02.792Z,15.63
2022-12-09T23:02:04.661Z,17.10
2022-12-09T23:07:07.698Z,14.27
2022-12-09T23:12:09.568Z,14.93
2022-12-09T23:17:11.686Z,15.00
2022-12-09T23:22:13.502Z,15.33
2022-12-09T23:27:15.354Z,14.27
2022-12-09T23:32:17.459Z,13.03
2022-12-09T23:37:19.406Z,14.57
2022-12-09T23:42:22.123Z,13.77
2022-12-09T23:47:23.876Z,14.60
2022-12-09T23:52:25.722Z,14.17
2022-12-09T23:57:27.626Z,14.60
